sensor_id;sensor_type;location;lat;lon;timestamp;P1;durP1;ratioP1;P2;durP2;ratioP2
42978;SDS011;28616;44.746;19.678;2024-02-14T07:47:01;21.55;;;10.45;;
42978;SDS011;28616;44.746;19.678;2024-02-14T07:49:27;19.50;;;10.02;;
42978;SDS011;28616;44.746;19.678;2024-02-14T07:51:53;19.40;;;10.55;;
42978;SDS011;28616;44.746;19.678;2024-02-14T07:54:18;38.17;;;17.63;;
42978;SDS011;28616;44.746;19.678;2024-02-14T07:56:44;20.35;;;10.20;;
42978;SDS011;28616;44.746;19.678;2024-02-14T07:59:10;23.77;;;11.75;;
42978;SDS011;28616;44.746;19.678;2024-02-14T08:01:36;20.00;;;10.23;;
42978;SDS011;28616;44.746;19.678;2024-02-14T08:04:02;18.58;;;11.00;;
42978;SDS011;28616;44.746;19.678;2024-02-14T08:06:29;24.20;;;11.63;;
42978;SDS011;28616;44.746;19.678;2024-02-14T08:08:55;28.77;;;12.77;;
42978;SDS011;28616;44.746;19.678;2024-02-14T08:11:26;32.60;;;12.23;;
42978;SDS011;28616;44.746;19.678;2024-02-14T08:13:52;20.23;;;8.95;;
42978;SDS011;28616;44.746;19.678;2024-02-14T08:16:18;23.08;;;11.02;;
42978;SDS011;28616;44.746;19.678;2024-02-14T08:18:44;29.33;;;10.70;;
42978;SDS011;28616;44.746;19.678;2024-02-14T08:21:10;32.22;;;14.05;;
42978;SDS011;28616;44.746;19.678;2024-02-14T08:23:37;25.35;;;14.35;;
42978;SDS011;28616;44.746;19.678;2024-02-14T08:26:04;27.48;;;13.40;;
42978;SDS011;28616;44.746;19.678;2024-02-14T08:28:36;27.55;;;14.50;;
42978;SDS011;28616;44.746;19.678;2024-02-14T08:31:02;29.27;;;14.88;;
42978;SDS011;28616;44.746;19.678;2024-02-14T08:33:28;25.98;;;14.57;;
42978;SDS011;28616;44.746;19.678;2024-02-14T08:35:54;20.52;;;11.68;;
42978;SDS011;28616;44.746;19.678;2024-02-14T08:38:22;28.85;;;14.68;;
42978;SDS011;28616;44.746;19.678;2024-02-14T08:40:48;25.33;;;12.82;;
42978;SDS011;28616;44.746;19.678;2024-02-14T08:43:14;26.67;;;12.82;;
42978;SDS011;28616;44.746;19.678;2024-02-14T08:45:40;21.95;;;11.20;;
42978;SDS011;28616;44.746;19.678;2024-02-14T08:48:06;19.98;;;10.50;;
42978;SDS011;28616;44.746;19.678;2024-02-14T08:50:32;25.50;;;11.93;;
42978;SDS011;28616;44.746;19.678;2024-02-14T08:52:58;20.83;;;10.73;;
42978;SDS011;28616;44.746;19.678;2024-02-14T08:55:24;29.48;;;12.68;;
42978;SDS011;28616;44.746;19.678;2024-02-14T08:57:49;29.38;;;14.25;;
42978;SDS011;28616;44.746;19.678;2024-02-14T09:00:15;31.40;;;14.43;;
42978;SDS011;28616;44.746;19.678;2024-02-14T09:02:45;19.60;;;11.13;;
42978;SDS011;28616;44.746;19.678;2024-02-14T09:05:12;24.58;;;11.10;;
42978;SDS011;28616;44.746;19.678;2024-02-14T09:07:38;22.83;;;14.65;;
42978;SDS011;28616;44.746;19.678;2024-02-14T09:10:04;19.63;;;10.85;;
42978;SDS011;28616;44.746;19.678;2024-02-14T09:12:31;21.30;;;9.95;;
42978;SDS011;28616;44.746;19.678;2024-02-14T09:14:57;23.27;;;9.20;;
42978;SDS011;28616;44.746;19.678;2024-02-14T09:17:23;24.67;;;10.15;;
42978;SDS011;28616;44.746;19.678;2024-02-14T09:19:49;24.52;;;11.95;;
42978;SDS011;28616;44.746;19.678;2024-02-14T09:22:14;64.47;;;29.30;;
42978;SDS011;28616;44.746;19.678;2024-02-14T09:24:46;37.58;;;18.40;;
42978;SDS011;28616;44.746;19.678;2024-02-14T09:27:13;27.33;;;13.30;;
42978;SDS011;28616;44.746;19.678;2024-02-14T09:29:39;20.42;;;11.95;;
42978;SDS011;28616;44.746;19.678;2024-02-14T09:32:05;19.83;;;10.52;;
42978;SDS011;28616;44.746;19.678;2024-02-14T09:34:31;29.95;;;11.90;;
42978;SDS011;28616;44.746;19.678;2024-02-14T09:36:56;23.70;;;11.60;;
42978;SDS011;28616;44.746;19.678;2024-02-14T09:39:24;20.65;;;10.23;;
42978;SDS011;28616;44.746;19.678;2024-02-14T09:41:54;18.02;;;10.10;;
42978;SDS011;28616;44.746;19.678;2024-02-14T09:44:27;17.35;;;8.98;;
42978;SDS011;28616;44.746;19.678;2024-02-14T09:46:56;17.83;;;9.88;;
42978;SDS011;28616;44.746;19.678;2024-02-14T09:49:23;12.73;;;8.05;;
42978;SDS011;28616;44.746;19.678;2024-02-14T09:51:50;17.08;;;9.07;;
42978;SDS011;28616;44.746;19.678;2024-02-14T09:54:16;20.65;;;10.02;;
42978;SDS011;28616;44.746;19.678;2024-02-14T09:56:52;21.00;;;10.23;;
42978;SDS011;28616;44.746;19.678;2024-02-14T09:59:21;24.77;;;11.02;;
42978;SDS011;28616;44.746;19.678;2024-02-14T10:01:48;23.67;;;12.20;;
42978;SDS011;28616;44.746;19.678;2024-02-14T10:04:16;28.27;;;12.18;;
42978;SDS011;28616;44.746;19.678;2024-02-14T10:06:44;21.33;;;10.88;;
42978;SDS011;28616;44.746;19.678;2024-02-14T12:09:58;12.85;;;7.28;;
42978;SDS011;28616;44.746;19.678;2024-02-14T12:12:24;14.30;;;7.50;;
42978;SDS011;28616;44.746;19.678;2024-02-14T12:14:53;19.10;;;10.00;;
42978;SDS011;28616;44.746;19.678;2024-02-14T12:17:19;16.33;;;9.05;;
42978;SDS011;28616;44.746;19.678;2024-02-14T12:19:44;21.33;;;10.73;;
42978;SDS011;28616;44.746;19.678;2024-02-14T12:22:13;21.45;;;10.80;;
42978;SDS011;28616;44.746;19.678;2024-02-14T12:24:45;19.88;;;10.23;;
42978;SDS011;28616;44.746;19.678;2024-02-14T12:27:18;18.58;;;9.10;;
42978;SDS011;28616;44.746;19.678;2024-02-14T12:29:47;15.00;;;8.30;;
42978;SDS011;28616;44.746;19.678;2024-02-14T12:32:15;15.73;;;8.40;;
42978;SDS011;28616;44.746;19.678;2024-02-14T12:34:43;21.17;;;10.88;;
42978;SDS011;28616;44.746;19.678;2024-02-14T12:37:10;28.08;;;11.23;;
42978;SDS011;28616;44.746;19.678;2024-02-14T12:39:36;21.52;;;11.30;;
42978;SDS011;28616;44.746;19.678;2024-02-14T12:42:03;22.88;;;11.07;;
42978;SDS011;28616;44.746;19.678;2024-02-14T12:44:29;33.08;;;12.60;;
42978;SDS011;28616;44.746;19.678;2024-02-14T12:46:56;18.52;;;10.27;;
42978;SDS011;28616;44.746;19.678;2024-02-14T12:49:22;20.95;;;9.68;;
42978;SDS011;28616;44.746;19.678;2024-02-14T12:51:51;19.35;;;9.63;;
42978;SDS011;28616;44.746;19.678;2024-02-14T12:54:17;23.73;;;12.57;;
42978;SDS011;28616;44.746;19.678;2024-02-14T12:56:43;18.00;;;8.93;;
42978;SDS011;28616;44.746;19.678;2024-02-14T12:59:09;22.52;;;10.98;;
42978;SDS011;28616;44.746;19.678;2024-02-14T13:01:43;23.65;;;13.05;;
42978;SDS011;28616;44.746;19.678;2024-02-14T13:04:09;17.77;;;9.38;;
42978;SDS011;28616;44.746;19.678;2024-02-14T13:06:35;18.88;;;10.52;;
42978;SDS011;28616;44.746;19.678;2024-02-14T13:09:02;16.17;;;9.10;;
42978;SDS011;28616;44.746;19.678;2024-02-14T13:11:31;22.23;;;10.70;;
42978;SDS011;28616;44.746;19.678;2024-02-14T13:13:57;26.13;;;11.85;;
42978;SDS011;28616;44.746;19.678;2024-02-14T13:16:23;28.02;;;12.45;;
42978;SDS011;28616;44.746;19.678;2024-02-14T13:18:49;26.85;;;10.60;;
42978;SDS011;28616;44.746;19.678;2024-02-14T13:21:15;22.98;;;10.77;;
42978;SDS011;28616;44.746;19.678;2024-02-14T13:23:41;22.00;;;10.57;;
42978;SDS011;28616;44.746;19.678;2024-02-14T13:26:08;18.77;;;9.63;;
42978;SDS011;28616;44.746;19.678;2024-02-14T13:28:34;11.95;;;6.53;;
42978;SDS011;28616;44.746;19.678;2024-02-14T13:31:00;17.48;;;7.30;;
42978;SDS011;28616;44.746;19.678;2024-02-14T13:33:25;36.70;;;17.65;;
42978;SDS011;28616;44.746;19.678;2024-02-14T13:35:51;23.05;;;11.18;;
42978;SDS011;28616;44.746;19.678;2024-02-14T13:38:17;21.15;;;11.98;;
42978;SDS011;28616;44.746;19.678;2024-02-14T13:40:43;21.58;;;11.88;;
42978;SDS011;28616;44.746;19.678;2024-02-14T13:43:09;17.67;;;9.48;;
42978;SDS011;28616;44.746;19.678;2024-02-14T13:45:40;12.90;;;8.00;;
42978;SDS011;28616;44.746;19.678;2024-02-14T13:48:10;37.65;;;19.02;;
42978;SDS011;28616;44.746;19.678;2024-02-14T13:50:36;11.05;;;5.85;;
42978;SDS011;28616;44.746;19.678;2024-02-14T13:53:03;13.13;;;6.72;;
42978;SDS011;28616;44.746;19.678;2024-02-14T13:55:29;16.75;;;7.60;;
42978;SDS011;28616;44.746;19.678;2024-02-14T13:57:55;18.45;;;9.00;;
42978;SDS011;28616;44.746;19.678;2024-02-14T14:00:21;18.58;;;8.60;;
42978;SDS011;28616;44.746;19.678;2024-02-14T14:02:47;24.70;;;8.90;;
42978;SDS011;28616;44.746;19.678;2024-02-14T14:05:12;23.35;;;11.27;;
42978;SDS011;28616;44.746;19.678;2024-02-14T14:07:38;24.95;;;11.25;;
42978;SDS011;28616;44.746;19.678;2024-02-14T14:10:05;22.60;;;11.80;;
42978;SDS011;28616;44.746;19.678;2024-02-14T14:12:31;15.32;;;6.95;;
42978;SDS011;28616;44.746;19.678;2024-02-14T14:14:57;15.30;;;7.68;;
42978;SDS011;28616;44.746;19.678;2024-02-14T14:17:24;27.58;;;9.15;;
42978;SDS011;28616;44.746;19.678;2024-02-14T14:19:51;19.27;;;7.95;;
42978;SDS011;28616;44.746;19.678;2024-02-14T14:22:17;20.83;;;8.65;;
42978;SDS011;28616;44.746;19.678;2024-02-14T14:24:42;43.00;;;17.70;;
42978;SDS011;28616;44.746;19.678;2024-02-14T14:27:09;26.85;;;12.30;;
42978;SDS011;28616;44.746;19.678;2024-02-14T14:29:39;15.60;;;8.05;;
42978;SDS011;28616;44.746;19.678;2024-02-14T14:32:08;18.33;;;8.05;;
42978;SDS011;28616;44.746;19.678;2024-02-14T14:34:36;16.13;;;7.43;;
42978;SDS011;28616;44.746;19.678;2024-02-14T14:37:02;22.13;;;7.97;;
42978;SDS011;28616;44.746;19.678;2024-02-14T14:39:28;33.70;;;12.05;;
42978;SDS011;28616;44.746;19.678;2024-02-14T14:41:54;25.38;;;9.63;;
42978;SDS011;28616;44.746;19.678;2024-02-14T14:44:23;25.77;;;10.45;;
42978;SDS011;28616;44.746;19.678;2024-02-14T14:46:50;17.52;;;7.60;;
42978;SDS011;28616;44.746;19.678;2024-02-14T14:49:15;18.33;;;8.98;;
42978;SDS011;28616;44.746;19.678;2024-02-14T14:51:41;18.60;;;9.70;;
42978;SDS011;28616;44.746;19.678;2024-02-14T14:54:07;19.95;;;10.00;;
42978;SDS011;28616;44.746;19.678;2024-02-14T14:56:33;18.45;;;8.75;;
42978;SDS011;28616;44.746;19.678;2024-02-14T14:58:59;19.30;;;8.02;;
42978;SDS011;28616;44.746;19.678;2024-02-14T15:01:28;18.33;;;8.00;;
42978;SDS011;28616;44.746;19.678;2024-02-14T15:03:59;25.37;;;10.97;;
42978;SDS011;28616;44.746;19.678;2024-02-14T15:06:25;22.15;;;9.25;;
42978;SDS011;28616;44.746;19.678;2024-02-14T15:08:51;17.75;;;8.65;;
42978;SDS011;28616;44.746;19.678;2024-02-14T15:11:18;13.85;;;8.38;;
42978;SDS011;28616;44.746;19.678;2024-02-14T15:13:46;13.52;;;6.55;;
42978;SDS011;28616;44.746;19.678;2024-02-14T15:16:12;17.90;;;8.63;;
42978;SDS011;28616;44.746;19.678;2024-02-14T15:18:38;24.15;;;10.45;;
42978;SDS011;28616;44.746;19.678;2024-02-14T15:21:05;23.13;;;11.30;;
42978;SDS011;28616;44.746;19.678;2024-02-14T15:23:32;31.02;;;15.65;;
42978;SDS011;28616;44.746;19.678;2024-02-14T15:25:58;24.13;;;13.05;;
42978;SDS011;28616;44.746;19.678;2024-02-14T15:28:32;20.98;;;10.73;;
42978;SDS011;28616;44.746;19.678;2024-02-14T15:31:05;16.60;;;8.50;;
42978;SDS011;28616;44.746;19.678;2024-02-14T15:33:52;19.27;;;8.82;;
42978;SDS011;28616;44.746;19.678;2024-02-14T15:36:20;22.75;;;11.18;;
42978;SDS011;28616;44.746;19.678;2024-02-14T15:38:47;25.38;;;12.68;;
42978;SDS011;28616;44.746;19.678;2024-02-14T15:41:12;35.38;;;15.35;;
42978;SDS011;28616;44.746;19.678;2024-02-14T15:43:39;23.73;;;11.25;;
42978;SDS011;28616;44.746;19.678;2024-02-14T15:46:09;30.15;;;13.60;;
42978;SDS011;28616;44.746;19.678;2024-02-14T15:48:36;26.17;;;12.63;;
42978;SDS011;28616;44.746;19.678;2024-02-14T15:51:02;33.80;;;13.43;;
42978;SDS011;28616;44.746;19.678;2024-02-14T15:53:27;32.78;;;14.93;;
42978;SDS011;28616;44.746;19.678;2024-02-14T15:55:55;45.30;;;19.70;;
42978;SDS011;28616;44.746;19.678;2024-02-14T15:58:21;39.33;;;18.65;;
42978;SDS011;28616;44.746;19.678;2024-02-14T16:00:47;57.17;;;26.02;;
42978;SDS011;28616;44.746;19.678;2024-02-14T16:03:12;49.03;;;22.55;;
42978;SDS011;28616;44.746;19.678;2024-02-14T16:05:38;62.95;;;26.02;;
42978;SDS011;28616;44.746;19.678;2024-02-14T16:08:04;40.47;;;19.38;;
42978;SDS011;28616;44.746;19.678;2024-02-14T16:10:30;62.25;;;24.30;;
42978;SDS011;28616;44.746;19.678;2024-02-14T16:12:56;65.68;;;28.58;;
42978;SDS011;28616;44.746;19.678;2024-02-14T16:15:23;87.72;;;33.72;;
42978;SDS011;28616;44.746;19.678;2024-02-14T16:17:49;101.20;;;39.72;;
42978;SDS011;28616;44.746;19.678;2024-02-14T16:20:15;96.00;;;38.38;;
42978;SDS011;28616;44.746;19.678;2024-02-14T16:22:44;99.53;;;40.53;;
42978;SDS011;28616;44.746;19.678;2024-02-14T16:25:11;89.22;;;40.25;;
42978;SDS011;28616;44.746;19.678;2024-02-14T16:27:38;111.10;;;49.37;;
42978;SDS011;28616;44.746;19.678;2024-02-14T16:30:04;180.18;;;71.35;;
42978;SDS011;28616;44.746;19.678;2024-02-14T16:32:34;193.20;;;79.93;;
42978;SDS011;28616;44.746;19.678;2024-02-14T16:35:00;199.05;;;81.30;;
42978;SDS011;28616;44.746;19.678;2024-02-14T16:37:27;180.75;;;76.70;;
42978;SDS011;28616;44.746;19.678;2024-02-14T16:39:53;149.15;;;62.38;;
42978;SDS011;28616;44.746;19.678;2024-02-14T16:42:20;215.13;;;85.30;;
42978;SDS011;28616;44.746;19.678;2024-02-14T16:44:46;282.08;;;102.22;;
42978;SDS011;28616;44.746;19.678;2024-02-14T16:47:12;140.32;;;50.67;;
42978;SDS011;28616;44.746;19.678;2024-02-14T16:49:37;186.55;;;65.75;;
42978;SDS011;28616;44.746;19.678;2024-02-14T16:52:04;164.38;;;64.15;;
42978;SDS011;28616;44.746;19.678;2024-02-14T16:54:31;122.68;;;53.50;;
42978;SDS011;28616;44.746;19.678;2024-02-14T16:56:57;110.05;;;50.13;;
42978;SDS011;28616;44.746;19.678;2024-02-14T16:59:33;124.07;;;54.42;;
42978;SDS011;28616;44.746;19.678;2024-02-14T17:02:00;126.13;;;57.08;;
42978;SDS011;28616;44.746;19.678;2024-02-14T17:04:25;151.25;;;68.28;;
42978;SDS011;28616;44.746;19.678;2024-02-14T17:06:54;149.68;;;66.05;;
42978;SDS011;28616;44.746;19.678;2024-02-14T17:09:20;143.75;;;58.80;;
42978;SDS011;28616;44.746;19.678;2024-02-14T17:11:46;116.28;;;54.78;;
42978;SDS011;28616;44.746;19.678;2024-02-14T17:14:13;111.80;;;51.20;;
42978;SDS011;28616;44.746;19.678;2024-02-14T17:16:39;110.03;;;50.35;;
42978;SDS011;28616;44.746;19.678;2024-02-14T17:19:08;128.13;;;52.70;;
42978;SDS011;28616;44.746;19.678;2024-02-14T17:21:34;142.10;;;54.88;;
42978;SDS011;28616;44.746;19.678;2024-02-14T17:24:01;164.48;;;60.63;;
42978;SDS011;28616;44.746;19.678;2024-02-14T17:26:27;173.77;;;69.05;;
42978;SDS011;28616;44.746;19.678;2024-02-14T17:28:53;167.18;;;70.00;;
42978;SDS011;28616;44.746;19.678;2024-02-14T17:31:19;153.60;;;61.22;;
42978;SDS011;28616;44.746;19.678;2024-02-14T17:33:45;136.00;;;54.50;;
42978;SDS011;28616;44.746;19.678;2024-02-14T17:36:12;127.10;;;51.45;;
42978;SDS011;28616;44.746;19.678;2024-02-14T17:38:38;120.97;;;46.63;;
42978;SDS011;28616;44.746;19.678;2024-02-14T17:41:04;88.38;;;37.60;;
42978;SDS011;28616;44.746;19.678;2024-02-14T17:43:31;91.25;;;36.95;;
42978;SDS011;28616;44.746;19.678;2024-02-14T17:45:57;105.53;;;39.90;;
42978;SDS011;28616;44.746;19.678;2024-02-14T17:48:24;124.22;;;43.88;;
42978;SDS011;28616;44.746;19.678;2024-02-14T17:50:50;135.95;;;56.42;;
42978;SDS011;28616;44.746;19.678;2024-02-14T17:53:16;158.35;;;64.95;;
42978;SDS011;28616;44.746;19.678;2024-02-14T17:55:42;150.68;;;62.40;;
42978;SDS011;28616;44.746;19.678;2024-02-14T17:58:08;171.55;;;69.90;;
42978;SDS011;28616;44.746;19.678;2024-02-14T18:00:34;199.13;;;80.45;;
42978;SDS011;28616;44.746;19.678;2024-02-14T18:03:00;226.48;;;89.47;;
42978;SDS011;28616;44.746;19.678;2024-02-14T18:05:27;263.40;;;97.85;;
42978;SDS011;28616;44.746;19.678;2024-02-14T18:07:53;309.77;;;112.72;;
42978;SDS011;28616;44.746;19.678;2024-02-14T18:10:19;312.10;;;116.15;;
42978;SDS011;28616;44.746;19.678;2024-02-14T18:12:45;337.02;;;118.72;;
42978;SDS011;28616;44.746;19.678;2024-02-14T18:15:11;396.48;;;137.60;;
42978;SDS011;28616;44.746;19.678;2024-02-14T18:17:36;474.23;;;157.30;;
42978;SDS011;28616;44.746;19.678;2024-02-14T18:20:02;303.95;;;113.35;;
42978;SDS011;28616;44.746;19.678;2024-02-14T18:22:28;249.77;;;100.03;;
42978;SDS011;28616;44.746;19.678;2024-02-14T18:24:55;257.75;;;97.60;;
42978;SDS011;28616;44.746;19.678;2024-02-14T18:27:21;228.00;;;88.35;;
42978;SDS011;28616;44.746;19.678;2024-02-14T18:29:50;213.57;;;79.95;;
42978;SDS011;28616;44.746;19.678;2024-02-14T18:32:17;187.77;;;73.72;;
42978;SDS011;28616;44.746;19.678;2024-02-14T18:34:43;184.93;;;78.18;;
42978;SDS011;28616;44.746;19.678;2024-02-14T18:37:09;182.90;;;76.40;;
42978;SDS011;28616;44.746;19.678;2024-02-14T18:39:36;178.30;;;71.93;;
42978;SDS011;28616;44.746;19.678;2024-02-14T18:42:05;156.80;;;65.85;;
42978;SDS011;28616;44.746;19.678;2024-02-14T18:44:32;200.98;;;75.78;;
42978;SDS011;28616;44.746;19.678;2024-02-14T18:46:58;185.63;;;70.50;;
42978;SDS011;28616;44.746;19.678;2024-02-14T18:49:23;205.70;;;83.88;;
42978;SDS011;28616;44.746;19.678;2024-02-14T18:51:49;241.00;;;108.03;;
42978;SDS011;28616;44.746;19.678;2024-02-14T18:54:15;257.58;;;107.90;;
42978;SDS011;28616;44.746;19.678;2024-02-14T18:56:41;266.85;;;107.00;;
42978;SDS011;28616;44.746;19.678;2024-02-14T18:59:07;300.13;;;118.32;;
42978;SDS011;28616;44.746;19.678;2024-02-14T19:01:34;302.23;;;120.07;;
42978;SDS011;28616;44.746;19.678;2024-02-14T19:03:59;289.60;;;117.97;;
42978;SDS011;28616;44.746;19.678;2024-02-14T19:06:28;282.52;;;114.38;;
42978;SDS011;28616;44.746;19.678;2024-02-14T19:08:59;252.57;;;108.40;;
42978;SDS011;28616;44.746;19.678;2024-02-14T19:11:28;247.38;;;107.35;;
42978;SDS011;28616;44.746;19.678;2024-02-14T19:13:54;196.75;;;87.10;;
42978;SDS011;28616;44.746;19.678;2024-02-14T19:16:20;196.75;;;89.47;;
42978;SDS011;28616;44.746;19.678;2024-02-14T19:18:47;254.10;;;104.05;;
42978;SDS011;28616;44.746;19.678;2024-02-14T19:21:13;180.15;;;78.53;;
42978;SDS011;28616;44.746;19.678;2024-02-14T19:23:39;210.15;;;91.78;;
42978;SDS011;28616;44.746;19.678;2024-02-14T19:26:06;168.35;;;78.00;;
42978;SDS011;28616;44.746;19.678;2024-02-14T19:28:31;131.00;;;58.55;;
42978;SDS011;28616;44.746;19.678;2024-02-14T19:30:57;195.18;;;75.15;;
42978;SDS011;28616;44.746;19.678;2024-02-14T19:33:23;161.45;;;64.05;;
42978;SDS011;28616;44.746;19.678;2024-02-14T19:35:51;135.73;;;54.80;;
42978;SDS011;28616;44.746;19.678;2024-02-14T19:38:17;138.50;;;58.45;;
42978;SDS011;28616;44.746;19.678;2024-02-14T19:40:43;138.77;;;58.55;;
42978;SDS011;28616;44.746;19.678;2024-02-14T19:43:08;127.75;;;55.58;;
42978;SDS011;28616;44.746;19.678;2024-02-14T19:45:34;132.50;;;55.67;;
42978;SDS011;28616;44.746;19.678;2024-02-14T19:48:02;157.05;;;64.68;;
42978;SDS011;28616;44.746;19.678;2024-02-14T19:50:29;152.25;;;67.13;;
42978;SDS011;28616;44.746;19.678;2024-02-14T19:52:55;135.48;;;60.13;;
42978;SDS011;28616;44.746;19.678;2024-02-14T19:55:21;132.70;;;59.70;;
42978;SDS011;28616;44.746;19.678;2024-02-14T19:57:48;102.28;;;42.22;;
42978;SDS011;28616;44.746;19.678;2024-02-14T20:00:14;112.80;;;43.85;;
42978;SDS011;28616;44.746;19.678;2024-02-14T20:02:42;87.43;;;37.67;;
42978;SDS011;28616;44.746;19.678;2024-02-14T20:05:08;106.20;;;44.75;;
42978;SDS011;28616;44.746;19.678;2024-02-14T20:07:34;103.57;;;45.00;;
42978;SDS011;28616;44.746;19.678;2024-02-14T20:10:01;91.47;;;38.67;;
42978;SDS011;28616;44.746;19.678;2024-02-14T20:12:29;83.63;;;37.03;;
42978;SDS011;28616;44.746;19.678;2024-02-14T20:14:58;77.40;;;37.08;;
42978;SDS011;28616;44.746;19.678;2024-02-14T20:17:23;72.40;;;35.10;;
42978;SDS011;28616;44.746;19.678;2024-02-14T20:19:49;74.80;;;34.00;;
42978;SDS011;28616;44.746;19.678;2024-02-14T20:22:16;82.90;;;37.78;;
42978;SDS011;28616;44.746;19.678;2024-02-14T20:24:44;78.90;;;36.20;;
42978;SDS011;28616;44.746;19.678;2024-02-14T20:27:10;86.00;;;36.85;;
42978;SDS011;28616;44.746;19.678;2024-02-14T20:29:36;94.47;;;36.20;;
42978;SDS011;28616;44.746;19.678;2024-02-14T20:32:02;81.40;;;36.72;;
42978;SDS011;28616;44.746;19.678;2024-02-14T20:34:28;84.55;;;37.17;;
42978;SDS011;28616;44.746;19.678;2024-02-14T20:36:54;89.68;;;37.75;;
42978;SDS011;28616;44.746;19.678;2024-02-14T20:39:20;80.10;;;34.90;;
42978;SDS011;28616;44.746;19.678;2024-02-14T20:41:45;79.55;;;34.67;;
42978;SDS011;28616;44.746;19.678;2024-02-14T20:44:11;63.40;;;28.63;;
42978;SDS011;28616;44.746;19.678;2024-02-14T20:46:37;70.15;;;29.58;;
42978;SDS011;28616;44.746;19.678;2024-02-14T20:49:04;76.78;;;33.35;;
42978;SDS011;28616;44.746;19.678;2024-02-14T20:51:34;80.82;;;33.80;;
42978;SDS011;28616;44.746;19.678;2024-02-14T20:54:01;75.00;;;34.08;;
42978;SDS011;28616;44.746;19.678;2024-02-14T20:56:29;80.90;;;37.30;;
42978;SDS011;28616;44.746;19.678;2024-02-14T20:58:55;76.05;;;34.30;;
42978;SDS011;28616;44.746;19.678;2024-02-14T21:01:21;80.53;;;33.58;;
42978;SDS011;28616;44.746;19.678;2024-02-14T21:03:47;66.38;;;28.52;;
42978;SDS011;28616;44.746;19.678;2024-02-14T21:06:14;81.85;;;32.85;;
42978;SDS011;28616;44.746;19.678;2024-02-14T21:08:40;103.35;;;36.78;;
42978;SDS011;28616;44.746;19.678;2024-02-14T21:11:05;109.57;;;40.95;;
42978;SDS011;28616;44.746;19.678;2024-02-14T21:13:31;108.00;;;39.17;;
42978;SDS011;28616;44.746;19.678;2024-02-14T21:15:57;96.82;;;38.80;;
42978;SDS011;28616;44.746;19.678;2024-02-14T21:18:23;126.47;;;43.10;;
42978;SDS011;28616;44.746;19.678;2024-02-14T21:20:48;112.22;;;41.53;;
42978;SDS011;28616;44.746;19.678;2024-02-14T21:23:14;129.95;;;43.67;;
42978;SDS011;28616;44.746;19.678;2024-02-14T21:25:40;87.18;;;37.22;;
42978;SDS011;28616;44.746;19.678;2024-02-14T21:28:06;77.68;;;34.25;;
42978;SDS011;28616;44.746;19.678;2024-02-14T21:30:32;71.13;;;32.40;;
42978;SDS011;28616;44.746;19.678;2024-02-14T21:32:58;82.63;;;34.40;;
42978;SDS011;28616;44.746;19.678;2024-02-14T21:35:25;77.90;;;33.80;;
42978;SDS011;28616;44.746;19.678;2024-02-14T21:37:51;85.68;;;35.22;;
42978;SDS011;28616;44.746;19.678;2024-02-14T21:40:17;83.47;;;34.60;;
42978;SDS011;28616;44.746;19.678;2024-02-14T21:42:43;82.22;;;33.50;;
42978;SDS011;28616;44.746;19.678;2024-02-14T21:45:09;75.07;;;29.58;;
42978;SDS011;28616;44.746;19.678;2024-02-14T21:47:36;56.08;;;26.08;;
42978;SDS011;28616;44.746;19.678;2024-02-14T21:50:03;59.00;;;23.98;;
42978;SDS011;28616;44.746;19.678;2024-02-14T21:52:29;54.28;;;23.85;;
42978;SDS011;28616;44.746;19.678;2024-02-14T21:54:55;56.40;;;22.08;;
42978;SDS011;28616;44.746;19.678;2024-02-14T21:57:22;48.40;;;21.35;;
42978;SDS011;28616;44.746;19.678;2024-02-14T21:59:51;51.25;;;23.15;;
42978;SDS011;28616;44.746;19.678;2024-02-14T22:02:17;47.70;;;20.50;;
42978;SDS011;28616;44.746;19.678;2024-02-14T22:04:43;82.18;;;33.65;;
42978;SDS011;28616;44.746;19.678;2024-02-14T22:07:10;66.13;;;29.08;;
42978;SDS011;28616;44.746;19.678;2024-02-14T22:09:36;62.20;;;26.75;;
42978;SDS011;28616;44.746;19.678;2024-02-14T22:12:03;72.30;;;28.55;;
42978;SDS011;28616;44.746;19.678;2024-02-14T22:14:33;58.75;;;24.52;;
42978;SDS011;28616;44.746;19.678;2024-02-14T22:17:03;57.60;;;25.55;;
42978;SDS011;28616;44.746;19.678;2024-02-14T22:19:30;59.15;;;25.17;;
42978;SDS011;28616;44.746;19.678;2024-02-14T22:21:59;74.30;;;30.50;;
42978;SDS011;28616;44.746;19.678;2024-02-14T22:24:25;78.50;;;35.05;;
42978;SDS011;28616;44.746;19.678;2024-02-14T22:26:53;117.53;;;53.90;;
42978;SDS011;28616;44.746;19.678;2024-02-14T22:29:19;150.60;;;62.63;;
42978;SDS011;28616;44.746;19.678;2024-02-14T22:31:45;127.82;;;53.35;;
42978;SDS011;28616;44.746;19.678;2024-02-14T22:34:11;140.52;;;59.38;;
42978;SDS011;28616;44.746;19.678;2024-02-14T22:36:37;181.32;;;74.57;;
42978;SDS011;28616;44.746;19.678;2024-02-14T22:39:02;91.95;;;41.55;;
42978;SDS011;28616;44.746;19.678;2024-02-14T22:41:31;84.22;;;38.17;;
42978;SDS011;28616;44.746;19.678;2024-02-14T22:43:58;74.38;;;32.38;;
42978;SDS011;28616;44.746;19.678;2024-02-14T22:46:23;76.03;;;35.75;;
42978;SDS011;28616;44.746;19.678;2024-02-14T22:48:49;67.22;;;29.77;;
42978;SDS011;28616;44.746;19.678;2024-02-14T22:51:16;72.38;;;32.30;;
42978;SDS011;28616;44.746;19.678;2024-02-14T22:53:42;72.78;;;32.08;;
42978;SDS011;28616;44.746;19.678;2024-02-14T22:56:09;52.10;;;24.75;;
42978;SDS011;28616;44.746;19.678;2024-02-14T22:58:37;56.58;;;24.35;;
42978;SDS011;28616;44.746;19.678;2024-02-14T23:01:03;48.22;;;21.83;;
42978;SDS011;28616;44.746;19.678;2024-02-14T23:03:29;63.13;;;28.30;;
42978;SDS011;28616;44.746;19.678;2024-02-14T23:05:55;89.30;;;38.22;;
42978;SDS011;28616;44.746;19.678;2024-02-14T23:08:21;152.00;;;67.65;;
42978;SDS011;28616;44.746;19.678;2024-02-14T23:10:47;172.05;;;70.68;;
42978;SDS011;28616;44.746;19.678;2024-02-14T23:13:12;145.00;;;58.28;;
42978;SDS011;28616;44.746;19.678;2024-02-14T23:15:38;98.07;;;42.17;;
42978;SDS011;28616;44.746;19.678;2024-02-14T23:18:04;87.63;;;36.10;;
42978;SDS011;28616;44.746;19.678;2024-02-14T23:20:31;135.07;;;52.45;;
42978;SDS011;28616;44.746;19.678;2024-02-14T23:22:57;147.25;;;59.00;;
42978;SDS011;28616;44.746;19.678;2024-02-14T23:25:22;146.82;;;55.88;;
42978;SDS011;28616;44.746;19.678;2024-02-14T23:27:48;170.68;;;64.00;;
42978;SDS011;28616;44.746;19.678;2024-02-14T23:30:15;220.85;;;81.60;;
42978;SDS011;28616;44.746;19.678;2024-02-14T23:32:43;210.65;;;79.38;;
42978;SDS011;28616;44.746;19.678;2024-02-14T23:35:09;202.70;;;76.30;;
42978;SDS011;28616;44.746;19.678;2024-02-14T23:37:35;170.07;;;65.82;;
42978;SDS011;28616;44.746;19.678;2024-02-14T23:40:07;168.48;;;64.35;;
42978;SDS011;28616;44.746;19.678;2024-02-14T23:42:43;135.27;;;54.75;;
42978;SDS011;28616;44.746;19.678;2024-02-14T23:45:10;130.88;;;53.60;;
42978;SDS011;28616;44.746;19.678;2024-02-14T23:47:36;140.55;;;56.25;;
42978;SDS011;28616;44.746;19.678;2024-02-14T23:50:02;151.88;;;56.83;;